sensor_id;sensor_type;location;lat;lon;timestamp;pressure;altitude;pressure_sealevel;temperature;humidity
57600;BME280;43426;43.594;24.334;2023-02-20T00:00:57;101376.56;;;8.95;74.73
57600;BME280;43426;43.594;24.334;2023-02-20T00:03:23;101371.31;;;8.93;75.05
57600;BME280;43426;43.594;24.334;2023-02-20T00:05:49;101372.88;;;8.96;74.91
57600;BME280;43426;43.594;24.334;2023-02-20T00:08:14;101377.25;;;8.87;75.10
57600;BME280;43426;43.594;24.334;2023-02-20T00:10:39;101381.50;;;8.90;75.21
57600;BME280;43426;43.594;24.334;2023-02-20T00:13:05;101381.25;;;8.83;75.64
57600;BME280;43426;43.594;24.334;2023-02-20T00:15:32;101377.72;;;8.73;76.29
57600;BME280;43426;43.594;24.334;2023-02-20T00:17:58;101387.22;;;8.67;76.81
57600;BME280;43426;43.594;24.334;2023-02-20T00:20:23;101391.19;;;8.63;77.03
57600;BME280;43426;43.594;24.334;2023-02-20T00:22:49;101382.09;;;8.54;77.36
57600;BME280;43426;43.594;24.334;2023-02-20T00:25:16;101372.22;;;8.55;77.47
57600;BME280;43426;43.594;24.334;2023-02-20T00:27:41;101360.88;;;8.61;77.47
57600;BME280;43426;43.594;24.334;2023-02-20T00:30:09;101367.13;;;8.51;77.83
57600;BME280;43426;43.594;24.334;2023-02-20T00:32:35;101369.25;;;8.48;78.33
57600;BME280;43426;43.594;24.334;2023-02-20T00:35:00;101359.16;;;8.50;78.61
57600;BME280;43426;43.594;24.334;2023-02-20T00:37:26;101364.28;;;8.63;78.26
57600;BME280;43426;43.594;24.334;2023-02-20T00:39:51;101361.88;;;8.69;78.01
57600;BME280;43426;43.594;24.334;2023-02-20T00:42:16;101354.63;;;8.80;77.65
57600;BME280;43426;43.594;24.334;2023-02-20T00:44:41;101346.38;;;8.91;77.13
57600;BME280;43426;43.594;24.334;2023-02-20T00:47:07;101350.91;;;9.00;76.52
57600;BME280;43426;43.594;24.334;2023-02-20T00:49:32;101358.38;;;9.07;76.19
57600;BME280;43426;43.594;24.334;2023-02-20T00:51:57;101360.31;;;9.24;75.39
57600;BME280;43426;43.594;24.334;2023-02-20T00:54:23;101359.03;;;9.28;74.85
57600;BME280;43426;43.594;24.334;2023-02-20T00:56:48;101373.19;;;9.30;74.60
57600;BME280;43426;43.594;24.334;2023-02-20T00:59:13;101371.06;;;9.34;74.32
57600;BME280;43426;43.594;24.334;2023-02-20T01:01:38;101379.59;;;9.29;74.36
57600;BME280;43426;43.594;24.334;2023-02-20T01:04:04;101372.66;;;9.27;74.75
57600;BME280;43426;43.594;24.334;2023-02-20T01:06:29;101372.34;;;9.30;74.56
57600;BME280;43426;43.594;24.334;2023-02-20T01:08:54;101359.72;;;9.30;74.37
57600;BME280;43426;43.594;24.334;2023-02-20T01:11:20;101359.59;;;9.32;74.26
57600;BME280;43426;43.594;24.334;2023-02-20T01:13:45;101366.97;;;9.30;74.33
57600;BME280;43426;43.594;24.334;2023-02-20T01:16:11;101363.47;;;9.19;74.73
57600;BME280;43426;43.594;24.334;2023-02-20T01:18:36;101366.44;;;9.07;75.33
57600;BME280;43426;43.594;24.334;2023-02-20T01:21:01;101387.03;;;8.98;75.84
57600;BME280;43426;43.594;24.334;2023-02-20T01:23:26;101387.50;;;8.83;76.56
57600;BME280;43426;43.594;24.334;2023-02-20T01:25:52;101391.03;;;8.74;77.05
57600;BME280;43426;43.594;24.334;2023-02-20T01:28:17;101393.59;;;8.66;77.64
57600;BME280;43426;43.594;24.334;2023-02-20T01:30:42;101386.94;;;8.60;77.70
57600;BME280;43426;43.594;24.334;2023-02-20T01:33:08;101388.63;;;8.61;77.87
57600;BME280;43426;43.594;24.334;2023-02-20T01:35:33;101384.41;;;8.49;78.57
57600;BME280;43426;43.594;24.334;2023-02-20T01:37:58;101381.13;;;8.45;78.68
57600;BME280;43426;43.594;24.334;2023-02-20T01:40:25;101389.91;;;8.47;78.93
57600;BME280;43426;43.594;24.334;2023-02-20T01:42:50;101386.91;;;8.31;79.65
57600;BME280;43426;43.594;24.334;2023-02-20T01:47:41;101384.59;;;8.07;81.00
57600;BME280;43426;43.594;24.334;2023-02-20T01:50:06;101385.72;;;8.04;81.42
57600;BME280;43426;43.594;24.334;2023-02-20T01:52:32;101396.16;;;7.97;81.58
57600;BME280;43426;43.594;24.334;2023-02-20T01:57:44;101387.25;;;7.87;82.22
57600;BME280;43426;43.594;24.334;2023-02-20T02:00:13;101391.31;;;7.81;82.69
57600;BME280;43426;43.594;24.334;2023-02-20T02:02:40;101391.91;;;7.85;82.59
57600;BME280;43426;43.594;24.334;2023-02-20T02:05:06;101394.31;;;7.88;82.39
57600;BME280;43426;43.594;24.334;2023-02-20T02:07:33;101394.00;;;7.81;82.44
57600;BME280;43426;43.594;24.334;2023-02-20T02:09:59;101399.81;;;7.77;82.78
57600;BME280;43426;43.594;24.334;2023-02-20T02:12:26;101404.88;;;7.70;83.10
57600;BME280;43426;43.594;24.334;2023-02-20T02:14:52;101410.56;;;7.77;82.88
57600;BME280;43426;43.594;24.334;2023-02-20T02:22:25;101397.44;;;7.93;82.49
57600;BME280;43426;43.594;24.334;2023-02-20T02:39:04;101387.84;;;8.00;82.25
57600;BME280;43426;43.594;24.334;2023-02-20T02:41:07;101391.22;;;8.02;81.94
57600;BME280;43426;43.594;24.334;2023-02-20T02:46:03;101402.84;;;8.03;81.96
57600;BME280;43426;43.594;24.334;2023-02-20T02:48:40;101415.56;;;8.01;82.06
57600;BME280;43426;43.594;24.334;2023-02-20T02:51:11;101441.00;;;7.97;82.35
57600;BME280;43426;43.594;24.334;2023-02-20T02:53:37;101439.16;;;7.97;82.53
57600;BME280;43426;43.594;24.334;2023-02-20T02:56:02;101432.94;;;7.97;82.65
57600;BME280;43426;43.594;24.334;2023-02-20T02:58:46;101448.66;;;8.01;82.42
57600;BME280;43426;43.594;24.334;2023-02-20T03:01:11;101452.19;;;8.02;82.30
57600;BME280;43426;43.594;24.334;2023-02-20T03:03:37;101452.50;;;7.99;82.45
57600;BME280;43426;43.594;24.334;2023-02-20T03:06:06;101455.28;;;7.97;82.63
57600;BME280;43426;43.594;24.334;2023-02-20T03:08:51;101462.75;;;7.84;83.18
57600;BME280;43426;43.594;24.334;2023-02-20T03:11:22;101460.06;;;7.84;83.51
57600;BME280;43426;43.594;24.334;2023-02-20T03:13:52;101467.94;;;7.76;83.91
57600;BME280;43426;43.594;24.334;2023-02-20T03:17:00;101466.19;;;7.65;84.40
57600;BME280;43426;43.594;24.334;2023-02-20T03:19:34;101454.16;;;7.59;84.69
57600;BME280;43426;43.594;24.334;2023-02-20T03:22:01;101463.06;;;7.60;84.75
57600;BME280;43426;43.594;24.334;2023-02-20T03:24:29;101464.47;;;7.64;84.75
57600;BME280;43426;43.594;24.334;2023-02-20T03:26:56;101474.38;;;7.63;84.80
57600;BME280;43426;43.594;24.334;2023-02-20T03:29:24;101480.47;;;7.65;84.85
57600;BME280;43426;43.594;24.334;2023-02-20T03:31:59;101480.47;;;7.65;84.64
57600;BME280;43426;43.594;24.334;2023-02-20T03:34:45;101478.06;;;7.62;84.65
57600;BME280;43426;43.594;24.334;2023-02-20T03:37:30;101475.63;;;7.59;84.88
57600;BME280;43426;43.594;24.334;2023-02-20T03:40:17;101477.03;;;7.54;85.03
57600;BME280;43426;43.594;24.334;2023-02-20T03:43:02;101471.47;;;7.45;85.42
57600;BME280;43426;43.594;24.334;2023-02-20T03:45:49;101467.22;;;7.43;85.50
57600;BME280;43426;43.594;24.334;2023-02-20T03:51:00;101445.28;;;7.38;85.45
57600;BME280;43426;43.594;24.334;2023-02-20T03:53:25;101437.44;;;7.25;86.04
57600;BME280;43426;43.594;24.334;2023-02-20T03:55:51;101442.47;;;7.18;86.30
57600;BME280;43426;43.594;24.334;2023-02-20T03:58:19;101445.56;;;7.13;86.54
57600;BME280;43426;43.594;24.334;2023-02-20T04:00:47;101438.06;;;7.17;86.21
57600;BME280;43426;43.594;24.334;2023-02-20T04:03:16;101438.81;;;7.19;86.04
57600;BME280;43426;43.594;24.334;2023-02-20T04:05:42;101435.22;;;7.30;84.86
57600;BME280;43426;43.594;24.334;2023-02-20T04:08:09;101450.81;;;7.46;83.54
57600;BME280;43426;43.594;24.334;2023-02-20T04:10:39;101448.22;;;7.65;81.55
57600;BME280;43426;43.594;24.334;2023-02-20T04:13:05;101450.72;;;7.78;80.41
57600;BME280;43426;43.594;24.334;2023-02-20T04:15:31;101446.63;;;7.84;80.03
57600;BME280;43426;43.594;24.334;2023-02-20T04:18:05;101466.28;;;7.84;79.52
57600;BME280;43426;43.594;24.334;2023-02-20T04:20:32;101448.75;;;7.90;79.11
57600;BME280;43426;43.594;24.334;2023-02-20T04:22:59;101464.56;;;7.83;78.99
57600;BME280;43426;43.594;24.334;2023-02-20T04:28:04;101485.22;;;7.83;78.48
57600;BME280;43426;43.594;24.334;2023-02-20T04:30:29;101492.59;;;7.81;77.80
57600;BME280;43426;43.594;24.334;2023-02-20T04:32:55;101492.81;;;7.78;77.73
57600;BME280;43426;43.594;24.334;2023-02-20T04:35:20;101493.41;;;7.81;77.84
57600;BME280;43426;43.594;24.334;2023-02-20T04:37:46;101508.25;;;7.76;78.44
57600;BME280;43426;43.594;24.334;2023-02-20T04:40:12;101522.94;;;7.72;79.42
57600;BME280;43426;43.594;24.334;2023-02-20T04:42:37;101531.19;;;7.59;80.61
57600;BME280;43426;43.594;24.334;2023-02-20T04:45:03;101537.09;;;7.53;81.15
57600;BME280;43426;43.594;24.334;2023-02-20T04:47:29;101535.31;;;7.42;81.47
57600;BME280;43426;43.594;24.334;2023-02-20T04:49:54;101536.56;;;7.38;81.27
57600;BME280;43426;43.594;24.334;2023-02-20T04:52:19;101543.78;;;7.37;81.25
57600;BME280;43426;43.594;24.334;2023-02-20T04:54:44;101548.09;;;7.28;81.35
57600;BME280;43426;43.594;24.334;2023-02-20T04:57:10;101553.00;;;7.23;81.54
57600;BME280;43426;43.594;24.334;2023-02-20T04:59:35;101556.31;;;7.15;81.56
57600;BME280;43426;43.594;24.334;2023-02-20T05:02:00;101556.91;;;7.19;81.08
57600;BME280;43426;43.594;24.334;2023-02-20T05:04:26;101556.66;;;7.22;80.31
57600;BME280;43426;43.594;24.334;2023-02-20T05:06:52;101564.91;;;7.30;78.83
57600;BME280;43426;43.594;24.334;2023-02-20T05:09:18;101558.69;;;7.30;77.35
57600;BME280;43426;43.594;24.334;2023-02-20T05:11:44;101564.63;;;7.33;75.75
57600;BME280;43426;43.594;24.334;2023-02-20T05:14:09;101566.69;;;7.41;74.52
57600;BME280;43426;43.594;24.334;2023-02-20T05:16:37;101573.91;;;7.41;74.01
57600;BME280;43426;43.594;24.334;2023-02-20T05:19:03;101585.88;;;7.37;73.74
57600;BME280;43426;43.594;24.334;2023-02-20T05:21:29;101583.19;;;7.37;73.16
57600;BME280;43426;43.594;24.334;2023-02-20T05:24:13;101593.97;;;7.25;73.46
57600;BME280;43426;43.594;24.334;2023-02-20T05:26:38;101603.59;;;7.28;73.36
57600;BME280;43426;43.594;24.334;2023-02-20T05:29:04;101608.13;;;7.27;73.44
57600;BME280;43426;43.594;24.334;2023-02-20T05:31:29;101613.22;;;7.30;73.08
57600;BME280;43426;43.594;24.334;2023-02-20T05:33:54;101620.88;;;7.35;73.10
57600;BME280;43426;43.594;24.334;2023-02-20T05:36:20;101630.28;;;7.41;72.62
57600;BME280;43426;43.594;24.334;2023-02-20T05:38:45;101633.56;;;7.44;72.50
57600;BME280;43426;43.594;24.334;2023-02-20T05:41:15;101646.47;;;7.50;72.26
57600;BME280;43426;43.594;24.334;2023-02-20T05:43:41;101652.69;;;7.51;72.18
57600;BME280;43426;43.594;24.334;2023-02-20T05:46:06;101670.72;;;7.60;71.97
57600;BME280;43426;43.594;24.334;2023-02-20T05:48:32;101688.16;;;7.66;71.46
57600;BME280;43426;43.594;24.334;2023-02-20T05:50:57;101681.16;;;7.75;71.33
57600;BME280;43426;43.594;24.334;2023-02-20T05:53:22;101689.16;;;7.86;70.67
57600;BME280;43426;43.594;24.334;2023-02-20T05:55:48;101700.09;;;7.94;70.29
57600;BME280;43426;43.594;24.334;2023-02-20T05:58:13;101699.41;;;8.13;69.76
57600;BME280;43426;43.594;24.334;2023-02-20T06:00:38;101714.47;;;8.26;69.45
57600;BME280;43426;43.594;24.334;2023-02-20T06:03:07;101712.13;;;8.32;69.04
57600;BME280;43426;43.594;24.334;2023-02-20T06:05:34;101710.53;;;8.51;68.38
57600;BME280;43426;43.594;24.334;2023-02-20T06:07:59;101717.22;;;8.57;67.92
57600;BME280;43426;43.594;24.334;2023-02-20T06:10:24;101726.63;;;8.72;67.45
57600;BME280;43426;43.594;24.334;2023-02-20T06:12:49;101722.91;;;8.94;66.31
57600;BME280;43426;43.594;24.334;2023-02-20T06:15:15;101740.66;;;9.07;65.31
57600;BME280;43426;43.594;24.334;2023-02-20T06:17:40;101753.34;;;9.26;65.52
57600;BME280;43426;43.594;24.334;2023-02-20T06:20:05;101742.16;;;9.30;64.54
57600;BME280;43426;43.594;24.334;2023-02-20T06:22:31;101751.25;;;9.29;64.00
57600;BME280;43426;43.594;24.334;2023-02-20T06:24:56;101747.84;;;9.37;64.11
57600;BME280;43426;43.594;24.334;2023-02-20T06:27:21;101745.13;;;9.37;62.67
57600;BME280;43426;43.594;24.334;2023-02-20T06:29:46;101742.59;;;9.35;62.76
57600;BME280;43426;43.594;24.334;2023-02-20T06:32:12;101741.78;;;9.45;63.29
57600;BME280;43426;43.594;24.334;2023-02-20T06:34:37;101736.91;;;9.38;63.41
57600;BME280;43426;43.594;24.334;2023-02-20T06:37:02;101742.47;;;9.47;62.96
57600;BME280;43426;43.594;24.334;2023-02-20T06:39:28;101750.50;;;9.27;62.67
57600;BME280;43426;43.594;24.334;2023-02-20T06:41:54;101740.41;;;9.10;61.51
57600;BME280;43426;43.594;24.334;2023-02-20T06:44:20;101761.78;;;9.01;61.45
57600;BME280;43426;43.594;24.334;2023-02-20T06:46:45;101753.78;;;8.90;61.67
57600;BME280;43426;43.594;24.334;2023-02-20T06:49:10;101753.28;;;9.06;61.80
57600;BME280;43426;43.594;24.334;2023-02-20T06:51:39;101743.34;;;9.07;61.17
57600;BME280;43426;43.594;24.334;2023-02-20T06:54:04;101755.03;;;9.17;61.50
57600;BME280;43426;43.594;24.334;2023-02-20T06:56:30;101754.47;;;9.23;60.45
57600;BME280;43426;43.594;24.334;2023-02-20T06:58:56;101754.63;;;9.31;59.27
57600;BME280;43426;43.594;24.334;2023-02-20T07:01:24;101759.88;;;9.33;60.22
57600;BME280;43426;43.594;24.334;2023-02-20T07:03:51;101762.34;;;9.46;59.07
57600;BME280;43426;43.594;24.334;2023-02-20T07:06:18;101778.91;;;9.51;58.26
57600;BME280;43426;43.594;24.334;2023-02-20T07:08:43;101766.16;;;9.43;56.94
57600;BME280;43426;43.594;24.334;2023-02-20T07:11:09;101766.84;;;9.45;56.72
57600;BME280;43426;43.594;24.334;2023-02-20T07:13:34;101763.16;;;9.36;55.51
57600;BME280;43426;43.594;24.334;2023-02-20T07:15:59;101765.19;;;9.44;55.75
57600;BME280;43426;43.594;24.334;2023-02-20T07:18:25;101769.69;;;9.44;55.52
57600;BME280;43426;43.594;24.334;2023-02-20T07:20:51;101781.59;;;9.41;54.90
57600;BME280;43426;43.594;24.334;2023-02-20T07:23:17;101785.97;;;9.32;55.16
57600;BME280;43426;43.594;24.334;2023-02-20T07:25:42;101784.22;;;9.22;55.72
57600;BME280;43426;43.594;24.334;2023-02-20T07:28:08;101787.22;;;9.28;55.50
57600;BME280;43426;43.594;24.334;2023-02-20T07:30:33;101799.13;;;9.26;56.19
57600;BME280;43426;43.594;24.334;2023-02-20T07:32:58;101806.38;;;9.25;56.43
57600;BME280;43426;43.594;24.334;2023-02-20T07:35:26;101810.63;;;9.28;55.39
57600;BME280;43426;43.594;24.334;2023-02-20T07:37:51;101813.56;;;9.25;55.97
57600;BME280;43426;43.594;24.334;2023-02-20T07:40:16;101820.81;;;9.24;55.96
57600;BME280;43426;43.594;24.334;2023-02-20T07:42:42;101816.81;;;9.18;55.63
57600;BME280;43426;43.594;24.334;2023-02-20T07:45:08;101809.16;;;9.14;55.84
57600;BME280;43426;43.594;24.334;2023-02-20T07:47:36;101815.09;;;9.17;56.16
57600;BME280;43426;43.594;24.334;2023-02-20T07:50:02;101809.72;;;9.17;54.98
57600;BME280;43426;43.594;24.334;2023-02-20T07:52:27;101807.03;;;9.17;55.04
57600;BME280;43426;43.594;24.334;2023-02-20T07:54:52;101814.78;;;9.42;54.81
57600;BME280;43426;43.594;24.334;2023-02-20T07:57:18;101829.91;;;9.74;54.10
57600;BME280;43426;43.594;24.334;2023-02-20T07:59:43;101825.50;;;9.82;52.84
57600;BME280;43426;43.594;24.334;2023-02-20T08:02:08;101818.38;;;9.71;53.84
57600;BME280;43426;43.594;24.334;2023-02-20T08:04:34;101834.88;;;9.88;53.28
57600;BME280;43426;43.594;24.334;2023-02-20T08:06:59;101834.19;;;10.05;52.04
57600;BME280;43426;43.594;24.334;2023-02-20T08:09:24;101843.72;;;10.10;51.54
57600;BME280;43426;43.594;24.334;2023-02-20T08:11:49;101840.03;;;10.20;51.07
57600;BME280;43426;43.594;24.334;2023-02-20T08:14:15;101852.50;;;10.31;50.39
57600;BME280;43426;43.594;24.334;2023-02-20T08:16:40;101855.09;;;10.33;50.04
57600;BME280;43426;43.594;24.334;2023-02-20T08:19:05;101858.63;;;10.33;50.50
57600;BME280;43426;43.594;24.334;2023-02-20T08:21:31;101862.03;;;10.16;51.12
57600;BME280;43426;43.594;24.334;2023-02-20T08:23:56;101855.34;;;10.10;50.62
57600;BME280;43426;43.594;24.334;2023-02-20T08:26:22;101858.34;;;10.17;51.54
57600;BME280;43426;43.594;24.334;2023-02-20T08:28:48;101866.84;;;10.12;51.26
57600;BME280;43426;43.594;24.334;2023-02-20T08:31:13;101867.56;;;10.24;50.75
57600;BME280;43426;43.594;24.334;2023-02-20T08:33:38;101868.97;;;10.28;50.72
57600;BME280;43426;43.594;24.334;2023-02-20T08:36:04;101867.13;;;10.19;49.29
57600;BME280;43426;43.594;24.334;2023-02-20T08:38:31;101886.88;;;10.19;50.12
57600;BME280;43426;43.594;24.334;2023-02-20T08:40:58;101893.81;;;10.12;50.12
57600;BME280;43426;43.594;24.334;2023-02-20T08:43:23;101881.63;;;10.08;49.89
57600;BME280;43426;43.594;24.334;2023-02-20T08:45:49;101888.56;;;10.11;49.84
57600;BME280;43426;43.594;24.334;2023-02-20T08:48:14;101895.16;;;10.37;49.55
57600;BME280;43426;43.594;24.334;2023-02-20T08:50:39;101889.19;;;10.83;49.07
57600;BME280;43426;43.594;24.334;2023-02-20T08:53:05;101892.00;;;10.91;46.52
57600;BME280;43426;43.594;24.334;2023-02-20T08:55:30;101897.38;;;10.81;46.78
57600;BME280;43426;43.594;24.334;2023-02-20T08:57:55;101899.69;;;10.86;46.77
57600;BME280;43426;43.594;24.334;2023-02-20T09:00:21;101896.69;;;10.89;46.03
57600;BME280;43426;43.594;24.334;2023-02-20T09:02:46;101902.38;;;10.96;45.29
57600;BME280;43426;43.594;24.334;2023-02-20T09:05:12;101902.16;;;11.17;45.43
57600;BME280;43426;43.594;24.334;2023-02-20T09:07:37;101896.72;;;11.27;45.33
57600;BME280;43426;43.594;24.334;2023-02-20T09:10:03;101900.69;;;11.32;44.88
57600;BME280;43426;43.594;24.334;2023-02-20T09:12:29;101900.50;;;10.96;45.17
57600;BME280;43426;43.594;24.334;2023-02-20T09:14:55;101905.38;;;10.93;45.31
57600;BME280;43426;43.594;24.334;2023-02-20T09:17:20;101902.38;;;10.96;45.69
57600;BME280;43426;43.594;24.334;2023-02-20T09:19:45;101905.72;;;11.07;45.05
57600;BME280;43426;43.594;24.334;2023-02-20T09:22:11;101904.06;;;11.06;46.12
57600;BME280;43426;43.594;24.334;2023-02-20T09:24:36;101900.00;;;11.30;45.02
57600;BME280;43426;43.594;24.334;2023-02-20T09:27:02;101895.28;;;11.32;45.69
57600;BME280;43426;43.594;24.334;2023-02-20T09:29:29;101899.72;;;11.61;44.55
57600;BME280;43426;43.594;24.334;2023-02-20T09:31:54;101905.44;;;11.58;44.74
57600;BME280;43426;43.594;24.334;2023-02-20T09:34:19;101908.88;;;11.50;44.23
57600;BME280;43426;43.594;24.334;2023-02-20T09:36:45;101930.97;;;11.73;44.00
57600;BME280;43426;43.594;24.334;2023-02-20T09:39:10;101927.34;;;11.92;43.61
57600;BME280;43426;43.594;24.334;2023-02-20T09:44:16;101923.47;;;12.05;43.87
57600;BME280;43426;43.594;24.334;2023-02-20T09:46:44;101928.97;;;12.13;42.74
57600;BME280;43426;43.594;24.334;2023-02-20T09:49:12;101927.41;;;12.11;42.73
57600;BME280;43426;43.594;24.334;2023-02-20T09:51:40;101928.28;;;12.29;42.85
57600;BME280;43426;43.594;24.334;2023-02-20T09:54:08;101928.75;;;12.42;43.23
57600;BME280;43426;43.594;24.334;2023-02-20T09:56:51;101929.38;;;12.72;41.88
57600;BME280;43426;43.594;24.334;2023-02-20T09:59:18;101921.94;;;12.74;41.75
57600;BME280;43426;43.594;24.334;2023-02-20T10:04:20;101922.50;;;12.60;42.33
57600;BME280;43426;43.594;24.334;2023-02-20T10:06:47;101901.69;;;12.42;42.26
57600;BME280;43426;43.594;24.334;2023-02-20T10:09:14;101894.94;;;12.65;42.23
57600;BME280;43426;43.594;24.334;2023-02-20T10:11:43;101896.78;;;12.82;41.68
57600;BME280;43426;43.594;24.334;2023-02-20T10:19:03;101906.53;;;12.57;42.34
57600;BME280;43426;43.594;24.334;2023-02-20T10:24:22;101891.81;;;12.77;40.95
57600;BME280;43426;43.594;24.334;2023-02-20T10:26:45;101897.38;;;12.94;40.93
57600;BME280;43426;43.594;24.334;2023-02-20T10:29:16;101886.84;;;12.91;41.17
57600;BME280;43426;43.594;24.334;2023-02-20T10:31:43;101882.38;;;12.82;40.15
57600;BME280;43426;43.594;24.334;2023-02-20T10:34:14;101869.22;;;12.87;40.47
57600;BME280;43426;43.594;24.334;2023-02-20T10:36:42;101871.75;;;13.15;39.86
57600;BME280;43426;43.594;24.334;2023-02-20T10:39:10;101869.88;;;12.89;39.83
57600;BME280;43426;43.594;24.334;2023-02-20T10:41:41;101870.59;;;12.91;40.17
57600;BME280;43426;43.594;24.334;2023-02-20T10:44:10;101876.50;;;12.86;40.78
57600;BME280;43426;43.594;24.334;2023-02-20T10:49:16;101886.31;;;13.74;38.73
57600;BME280;43426;43.594;24.334;2023-02-20T10:51:44;101875.13;;;13.77;39.20
57600;BME280;43426;43.594;24.334;2023-02-20T11:01:26;101894.00;;;13.44;39.33
57600;BME280;43426;43.594;24.334;2023-02-20T11:03:57;101889.03;;;13.40;38.87
57600;BME280;43426;43.594;24.334;2023-02-20T11:06:26;101892.00;;;13.28;38.79
57600;BME280;43426;43.594;24.334;2023-02-20T11:08:54;101885.50;;;13.39;39.20
57600;BME280;43426;43.594;24.334;2023-02-20T11:13:53;101891.75;;;13.74;38.48
57600;BME280;43426;43.594;24.334;2023-02-20T11:16:22;101893.84;;;13.89;37.55
57600;BME280;43426;43.594;24.334;2023-02-20T11:18:48;101878.25;;;13.99;37.40
57600;BME280;43426;43.594;24.334;2023-02-20T11:21:34;101880.19;;;14.15;37.53
57600;BME280;43426;43.594;24.334;2023-02-20T11:24:16;101886.13;;;14.35;36.86
57600;BME280;43426;43.594;24.334;2023-02-20T11:26:42;101887.09;;;14.09;37.07
57600;BME280;43426;43.594;24.334;2023-02-20T11:29:12;101877.13;;;14.18;37.40
57600;BME280;43426;43.594;24.334;2023-02-20T11:31:40;101872.88;;;14.24;36.57
57600;BME280;43426;43.594;24.334;2023-02-20T11:34:09;101872.19;;;14.30;36.21
57600;BME280;43426;43.594;24.334;2023-02-20T11:36:38;101867.81;;;14.45;36.34
57600;BME280;43426;43.594;24.334;2023-02-20T11:41:47;101856.47;;;14.67;36.33
57600;BME280;43426;43.594;24.334;2023-02-20T11:46:42;101848.44;;;14.16;36.09
57600;BME280;43426;43.594;24.334;2023-02-20T11:49:09;101851.34;;;14.30;35.79
57600;BME280;43426;43.594;24.334;2023-02-20T11:54:20;101854.50;;;13.93;35.76
57600;BME280;43426;43.594;24.334;2023-02-20T12:01:51;101860.34;;;14.39;35.60
57600;BME280;43426;43.594;24.334;2023-02-20T12:04:18;101861.88;;;14.42;35.52
57600;BME280;43426;43.594;24.334;2023-02-20T12:06:44;101854.72;;;14.33;36.07
57600;BME280;43426;43.594;24.334;2023-02-20T12:09:19;101853.03;;;14.31;35.77
57600;BME280;43426;43.594;24.334;2023-02-20T12:11:46;101851.00;;;14.25;35.68
57600;BME280;43426;43.594;24.334;2023-02-20T12:14:14;101847.13;;;14.53;35.89
57600;BME280;43426;43.594;24.334;2023-02-20T12:19:15;101850.31;;;14.40;35.76
57600;BME280;43426;43.594;24.334;2023-02-20T12:27:17;101842.03;;;14.41;33.80
57600;BME280;43426;43.594;24.334;2023-02-20T12:35:35;101851.22;;;14.81;34.96
57600;BME280;43426;43.594;24.334;2023-02-20T12:48:08;101842.63;;;13.94;34.96
57600;BME280;43426;43.594;24.334;2023-02-20T12:53:32;101855.94;;;13.62;36.12
57600;BME280;43426;43.594;24.334;2023-02-20T12:56:15;101853.03;;;13.56;35.81
57600;BME280;43426;43.594;24.334;2023-02-20T12:58:46;101868.50;;;13.72;36.49
57600;BME280;43426;43.594;24.334;2023-02-20T13:01:13;101857.53;;;13.90;35.98
57600;BME280;43426;43.594;24.334;2023-02-20T13:03:44;101856.53;;;13.91;35.77
57600;BME280;43426;43.594;24.334;2023-02-20T13:06:13;101847.91;;;14.04;35.72
57600;BME280;43426;43.594;24.334;2023-02-20T13:11:18;101862.47;;;13.86;35.65
57600;BME280;43426;43.594;24.334;2023-02-20T13:16:30;101841.22;;;13.73;36.64
57600;BME280;43426;43.594;24.334;2023-02-20T13:19:05;101842.78;;;13.84;34.77
57600;BME280;43426;43.594;24.334;2023-02-20T13:21:34;101843.63;;;13.76;35.60
57600;BME280;43426;43.594;24.334;2023-02-20T13:24:25;101843.91;;;13.73;34.97
57600;BME280;43426;43.594;24.334;2023-02-20T13:26:51;101846.31;;;13.68;36.00
57600;BME280;43426;43.594;24.334;2023-02-20T13:29:18;101829.84;;;13.61;36.08
57600;BME280;43426;43.594;24.334;2023-02-20T13:31:45;101835.34;;;13.43;34.76
57600;BME280;43426;43.594;24.334;2023-02-20T13:52:27;101806.06;;;13.21;35.97
57600;BME280;43426;43.594;24.334;2023-02-20T13:54:49;101817.81;;;13.29;34.40
57600;BME280;43426;43.594;24.334;2023-02-20T13:57:16;101813.94;;;13.32;34.98
57600;BME280;43426;43.594;24.334;2023-02-20T13:59:41;101809.19;;;13.34;34.30
57600;BME280;43426;43.594;24.334;2023-02-20T14:02:17;101809.44;;;13.15;34.32
57600;BME280;43426;43.594;24.334;2023-02-20T14:04:55;101793.88;;;13.17;34.63
57600;BME280;43426;43.594;24.334;2023-02-20T14:07:30;101806.13;;;13.03;33.29
57600;BME280;43426;43.594;24.334;2023-02-20T14:12:54;101801.53;;;12.95;33.90
57600;BME280;43426;43.594;24.334;2023-02-20T14:15:21;101793.84;;;13.08;33.17
57600;BME280;43426;43.594;24.334;2023-02-20T14:17:46;101791.69;;;13.20;33.63
57600;BME280;43426;43.594;24.334;2023-02-20T14:20:17;101786.56;;;13.09;32.72
57600;BME280;43426;43.594;24.334;2023-02-20T14:22:43;101789.59;;;13.06;34.15
57600;BME280;43426;43.594;24.334;2023-02-20T14:27:39;101790.88;;;13.28;32.69
57600;BME280;43426;43.594;24.334;2023-02-20T14:32:34;101788.09;;;13.11;32.89
57600;BME280;43426;43.594;24.334;2023-02-20T14:40:41;101773.91;;;12.91;34.09
57600;BME280;43426;43.594;24.334;2023-02-20T14:43:11;101789.44;;;12.81;34.34
57600;BME280;43426;43.594;24.334;2023-02-20T14:45:38;101791.88;;;12.66;34.33
57600;BME280;43426;43.594;24.334;2023-02-20T14:48:03;101790.38;;;12.46;34.68
57600;BME280;43426;43.594;24.334;2023-02-20T14:50:30;101794.03;;;12.36;35.33
57600;BME280;43426;43.594;24.334;2023-02-20T14:53:14;101785.78;;;12.20;35.31
57600;BME280;43426;43.594;24.334;2023-02-20T14:55:40;101785.00;;;12.09;35.47
57600;BME280;43426;43.594;24.334;2023-02-20T14:58:27;101784.84;;;12.11;35.71
57600;BME280;43426;43.594;24.334;2023-02-20T15:00:52;101799.09;;;11.95;36.06